Time;durP1;ratioP1;P1;durP2;ratioP2;P2;SDS_P1;SDS_P2;PMS_P1;PMS_P2;Temp;Humidity;BMP_temperature;BMP_pressure;BME280_temperature;BME280_humidity;BME280_pressure;Samples;Min_cycle;Max_cycle;Signal;HPM_P1;HPM_P2
2021/06/04 00:00:42;;;;;;;;;2.00;2.00;;;;;28.65;44.08;101602.91;4997044;28;45261;-53
2021/06/04 00:03:20;;;;;;;;;3.00;3.00;;;;;28.64;44.11;101603.94;4996803;28;45458;-50
2021/06/04 00:05:52;;;;;;;;;3.00;1.75;;;;;28.61;43.84;101601.56;4997205;28;45317;-49
2021/06/04 00:08:19;;;;;;;;;3.00;3.00;;;;;28.61;43.98;101593.28;5011678;28;45538;-51
2021/06/04 00:10:49;;;;;;;;;2.50;2.50;;;;;28.61;43.94;101596.06;4996866;28;45338;-50
2021/06/04 00:13:21;;;;;;;;;3.00;3.00;;;;;28.60;44.04;101604.53;4997045;28;45331;-56
2021/06/04 00:15:50;;;;;;;;;2.00;2.00;;;;;28.58;43.93;101604.72;4997140;28;45299;-50
2021/06/04 00:18:16;;;;;;;;;2.00;2.00;;;;;28.56;44.07;101601.31;4995687;28;45558;-51
2021/06/04 00:20:42;;;;;;;;;2.00;2.00;;;;;28.55;43.90;101607.03;4996755;28;45703;-51
2021/06/04 00:23:08;;;;;;;;;2.75;2.75;;;;;28.55;43.76;101616.16;4996758;28;45415;-52
2021/06/04 00:25:34;;;;;;;;;4.00;4.00;;;;;28.53;44.02;101632.13;4996700;28;45453;-50
2021/06/04 00:28:00;;;;;;;;;3.50;3.50;;;;;28.53;43.84;101640.41;4996320;28;45453;-52
2021/06/04 00:30:26;;;;;;;;;3.00;3.00;;;;;28.51;44.38;101637.81;4996924;28;45428;-51
2021/06/04 00:32:52;;;;;;;;;2.75;2.50;;;;;28.49;44.07;101639.91;4996820;28;45385;-53
2021/06/04 00:35:19;;;;;;;;;4.25;3.25;;;;;28.50;44.33;101649.91;4996608;28;45352;-51
2021/06/04 00:37:44;;;;;;;;;2.75;2.75;;;;;28.49;44.12;101641.84;4995139;28;45474;-53
2021/06/04 00:40:13;;;;;;;;;3.00;3.00;;;;;28.47;44.34;101641.19;4996569;28;45357;-53
2021/06/04 00:42:40;;;;;;;;;3.00;3.00;;;;;28.46;44.30;101633.94;4996378;28;45381;-55
2021/06/04 00:45:10;;;;;;;;;2.50;2.50;;;;;28.46;44.44;101631.19;4995343;28;45576;-50
2021/06/04 00:47:36;;;;;;;;;4.00;3.00;;;;;28.44;44.02;101625.00;4996535;28;46163;-53
2021/06/04 00:50:05;;;;;;;;;3.00;2.50;;;;;28.43;44.33;101628.81;4996399;28;45404;-51
2021/06/04 00:52:34;;;;;;;;;3.00;3.00;;;;;28.41;44.31;101630.91;4995149;28;45290;-53
2021/06/04 00:55:01;;;;;;;;;3.00;3.00;;;;;28.42;44.64;101635.38;4995183;28;45389;-51
2021/06/04 00:57:27;;;;;;;;;4.50;3.25;;;;;28.40;44.59;101645.78;4996154;28;45559;-51
2021/06/04 01:00:01;;;;;;;;;4.00;4.00;;;;;28.40;44.47;101651.31;4996281;28;45226;-53
2021/06/04 01:02:27;;;;;;;;;3.00;3.00;;;;;28.34;44.45;101648.28;4996489;28;45337;-53
2021/06/04 01:04:53;;;;;;;;;5.25;2.75;;;;;28.35;44.63;101651.88;4996356;28;45294;-54
2021/06/04 01:07:46;;;;;;;;;3.75;3.75;;;;;28.37;44.19;101668.28;4995972;28;46072;-52
2021/06/04 01:10:26;;;;;;;;;4.00;4.00;;;;;28.34;44.47;101681.41;4995909;28;45529;-54
2021/06/04 01:12:57;;;;;;;;;4.00;2.25;;;;;28.34;44.52;101689.69;4996318;28;45433;-54
2021/06/04 01:15:37;;;;;;;;;4.75;4.75;;;;;28.33;44.70;101685.22;4995753;28;45504;-52
2021/06/04 01:18:22;;;;;;;;;6.00;4.00;;;;;28.31;44.82;101670.75;4996107;28;45924;-53
2021/06/04 01:20:51;;;;;;;;;4.00;4.00;;;;;28.30;44.44;101674.56;4995496;28;45743;-51
2021/06/04 01:23:26;;;;;;;;;5.00;5.00;;;;;28.29;44.99;101683.91;4996289;28;45428;-51
2021/06/04 01:26:03;;;;;;;;;5.00;4.00;;;;;28.29;44.50;101686.66;4996200;28;45309;-50
2021/06/04 01:28:32;;;;;;;;;3.50;3.50;;;;;28.28;45.04;101676.66;4994841;28;45360;-51
2021/06/04 01:31:05;;;;;;;;;6.25;5.50;;;;;28.27;44.58;101672.19;4996018;28;45235;-49
2021/06/04 01:34:05;;;;;;;;;5.00;5.00;;;;;28.25;44.54;101660.50;4997292;28;45710;-54
2021/06/04 01:36:46;;;;;;;;;4.00;4.00;;;;;28.25;44.88;101668.78;4999154;28;45428;-52
2021/06/04 01:39:17;;;;;;;;;5.50;5.50;;;;;28.23;44.56;101670.88;4999250;28;45230;-53
2021/06/04 01:41:45;;;;;;;;;6.00;6.00;;;;;28.23;45.13;101673.66;4999319;28;45325;-52
2021/06/04 01:44:19;;;;;;;;;5.00;5.00;;;;;28.22;44.98;101663.66;4999336;28;45230;-53
2021/06/04 01:46:50;;;;;;;;;5.00;4.00;;;;;28.21;44.79;101653.66;4999454;28;45198;-51
2021/06/04 01:49:27;;;;;;;;;3.00;3.00;;;;;28.21;45.26;101648.13;4999072;28;46561;-56
2021/06/04 01:52:11;;;;;;;;;8.50;7.50;;;;;28.19;44.68;101653.84;4999160;28;45459;-53
2021/06/04 01:54:59;;;;;;;;;5.25;4.25;;;;;28.17;44.99;101653.19;4999396;28;45428;-51
2021/06/04 01:57:36;;;;;;;;;6.25;5.00;;;;;28.15;44.96;101635.09;4997752;28;45336;-51
2021/06/04 02:00:08;;;;;;;;;5.25;5.25;;;;;28.17;45.25;101631.13;4998464;28;45986;-54
2021/06/04 02:02:35;;;;;;;;;4.25;4.00;;;;;28.15;45.22;101624.06;4999005;28;45675;-52
2021/06/04 02:05:05;;;;;;;;;4.50;4.50;;;;;28.14;44.76;101625.97;4998654;28;45431;-50
2021/06/04 02:07:34;;;;;;;;;6.50;6.50;;;;;28.15;45.18;101633.22;4998950;28;45338;-50
2021/06/04 02:10:00;;;;;;;;;5.00;5.00;;;;;28.13;45.09;101632.56;4997134;28;46944;-55
2021/06/04 02:12:28;;;;;;;;;6.25;6.25;;;;;28.13;45.16;101637.19;4998859;28;45471;-53
2021/06/04 02:14:59;;;;;;;;;8.25;7.00;;;;;28.11;45.09;101634.66;4998779;28;45341;-53
2021/06/04 02:17:33;;;;;;;;;8.75;7.00;;;;;28.11;45.21;101636.56;4998974;28;45358;-55
2021/06/04 02:20:29;;;;;;;;;5.50;5.00;;;;;28.11;45.23;101631.03;4997199;28;47593;-53
2021/06/04 02:23:14;;;;;;;;;6.75;6.75;;;;;28.10;45.31;101640.38;4998667;28;45708;-52
2021/06/04 02:26:10;;;;;;;;;7.00;7.00;;;;;28.08;45.22;101634.16;4997556;28;45385;-50
2021/06/04 02:28:39;;;;;;;;;6.75;6.00;;;;;28.07;45.24;101637.97;4998687;28;45247;-54
2021/06/04 02:31:04;;;;;;;;;8.25;8.25;;;;;28.06;45.51;101648.13;4997210;28;47252;-54
2021/06/04 02:33:36;;;;;;;;;8.50;7.50;;;;;28.05;45.32;101658.34;4998304;28;45535;-51
2021/06/04 02:36:14;;;;;;;;;8.25;7.00;;;;;28.04;45.58;101667.66;4998625;28;45383;-51
2021/06/04 02:38:52;;;;;;;;;8.00;8.00;;;;;28.03;44.99;101673.38;4998345;28;45321;-53
2021/06/04 02:41:23;;;;;;;;;7.00;7.00;;;;;28.02;45.71;101674.44;4998570;28;47832;-54
2021/06/04 02:44:13;;;;;;;;;8.75;7.00;;;;;28.02;45.34;101685.47;4998372;28;45321;-54
2021/06/04 02:46:47;;;;;;;;;9.50;7.50;;;;;28.01;45.43;101684.59;4997924;28;45418;-51
2021/06/04 02:49:15;;;;;;;;;10.25;8.50;;;;;28.00;45.43;101688.41;5002501;28;45496;-53
2021/06/04 02:52:22;;;;;;;;;8.50;8.50;;;;;27.99;45.83;101697.72;4998234;28;46191;-48
2021/06/04 02:54:47;;;;;;;;;8.00;6.75;;;;;27.99;45.70;101736.38;4975874;28;45554;-53
2021/06/04 02:57:16;;;;;;;;;7.00;7.00;;;;;27.97;45.50;101759.72;4976082;28;45458;-54
2021/06/04 02:59:45;;;;;;;;;8.00;8.00;;;;;27.97;45.14;101776.25;4976187;28;45501;-54
2021/06/04 03:02:15;;;;;;;;;7.25;7.25;;;;;27.95;45.51;101761.78;4976112;28;46199;-53
2021/06/04 03:04:47;;;;;;;;;7.00;7.00;;;;;27.93;45.78;101693.00;4976283;28;45287;-50
2021/06/04 03:07:23;;;;;;;;;7.00;7.00;;;;;27.90;45.86;101663.88;4976056;28;45301;-50
2021/06/04 03:09:48;;;;;;;;;6.00;6.00;;;;;27.90;45.76;101668.53;4975975;28;45363;-53
2021/06/04 03:12:22;;;;;;;;;7.50;7.50;;;;;27.90;45.77;101663.03;4976092;28;45912;-53
2021/06/04 03:14:51;;;;;;;;;7.00;7.00;;;;;27.90;45.48;101640.94;4976014;28;45284;-49
2021/06/04 03:17:20;;;;;;;;;6.75;6.75;;;;;27.88;45.33;101621.84;4975596;28;45578;-54
2021/06/04 03:19:45;;;;;;;;;10.00;9.00;;;;;27.86;45.80;101612.91;4976079;28;45506;-51
2021/06/04 03:22:38;;;;;;;;;12.00;7.00;;;;;27.86;45.86;101596.34;4975744;28;46113;-53
2021/06/04 03:25:19;;;;;;;;;8.50;7.50;;;;;27.86;45.83;101600.97;4975801;28;45639;-52
2021/06/04 03:27:46;;;;;;;;;7.75;7.75;;;;;27.86;45.51;101609.25;4976002;28;45383;-51
2021/06/04 03:30:14;;;;;;;;;7.00;7.00;;;;;27.86;45.81;101606.50;4973495;28;45542;-53
2021/06/04 03:32:39;;;;;;;;;7.75;6.25;;;;;27.84;45.35;101605.84;4997532;28;45312;-53
2021/06/04 03:35:08;;;;;;;;;7.75;7.75;;;;;27.83;45.71;101593.97;5012593;28;45451;-52
2021/06/04 03:37:35;;;;;;;;;9.00;7.75;;;;;27.83;45.76;101579.28;4997685;28;45345;-49
2021/06/04 03:40:03;;;;;;;;;8.00;7.75;;;;;27.83;45.71;101580.16;4998439;28;45270;-51
2021/06/04 03:42:30;;;;;;;;;7.00;7.00;;;;;27.82;45.96;101583.13;4992503;28;45566;-49
2021/06/04 03:44:57;;;;;;;;;9.25;9.25;;;;;27.81;45.37;101578.66;4997190;28;45349;-49
2021/06/04 03:47:23;;;;;;;;;8.00;7.50;;;;;27.81;45.49;101581.41;4985220;28;45504;-51
2021/06/04 03:49:49;;;;;;;;;7.25;7.25;;;;;27.75;46.18;101553.53;4977495;28;45291;-53
2021/06/04 03:52:20;;;;;;;;;7.75;7.75;;;;;27.78;46.03;101555.03;4977530;28;46623;-51
2021/06/04 03:54:49;;;;;;;;;9.75;8.00;;;;;27.79;45.87;101547.63;4977550;28;45478;-54
2021/06/04 03:57:20;;;;;;;;;7.00;7.00;;;;;27.77;45.91;101538.69;4978607;28;45345;-50
2021/06/04 03:59:46;;;;;;;;;5.25;5.25;;;;;27.75;46.29;101539.75;4996706;28;45211;-53
2021/06/04 04:02:15;;;;;;;;;8.00;8.00;;;;;27.75;46.19;101542.50;4997015;28;45400;-51
2021/06/04 04:04:41;;;;;;;;;10.00;8.50;;;;;27.75;46.00;101542.50;4997203;28;46001;-55
2021/06/04 04:07:08;;;;;;;;;7.50;7.50;;;;;27.73;46.00;101544.59;4997192;28;45278;-51
2021/06/04 04:09:34;;;;;;;;;7.00;7.00;;;;;27.74;46.26;101545.47;4996871;28;45497;-51
2021/06/04 04:12:00;;;;;;;;;8.50;7.00;;;;;27.74;45.72;101542.72;4997085;28;46241;-53
2021/06/04 04:14:26;;;;;;;;;7.00;7.00;;;;;27.73;45.62;101541.00;4996453;28;45368;-53
2021/06/04 04:16:52;;;;;;;;;7.50;6.00;;;;;27.72;45.78;101545.66;4997052;28;45298;-52
2021/06/04 04:19:19;;;;;;;;;6.00;6.00;;;;;27.71;46.09;101554.97;4997073;28;45349;-52
2021/06/04 04:21:46;;;;;;;;;9.50;7.25;;;;;27.72;46.04;101553.91;4996396;28;45304;-56
2021/06/04 04:24:17;;;;;;;;;8.00;7.50;;;;;27.70;46.15;101553.25;4996787;28;45561;-55
2021/06/04 04:26:45;;;;;;;;;8.25;8.25;;;;;27.70;45.67;101549.66;4996849;28;45218;-55
2021/06/04 04:29:11;;;;;;;;;7.50;6.75;;;;;27.68;45.86;101551.75;4996761;28;45437;-58
2021/06/04 04:31:44;;;;;;;;;6.75;5.75;;;;;27.68;46.02;101547.09;4996523;28;45518;-54
2021/06/04 04:34:11;;;;;;;;;7.75;6.75;;;;;27.68;45.98;101544.34;4996406;28;45699;-55
2021/06/04 04:36:41;;;;;;;;;7.50;6.00;;;;;27.67;46.10;101534.34;4996833;28;45385;-53
2021/06/04 04:39:10;;;;;;;;;7.00;6.50;;;;;27.68;45.81;101535.19;4996420;28;45147;-51
2021/06/04 04:41:36;;;;;;;;;10.00;7.75;;;;;27.66;46.21;101537.28;4995181;28;47910;-54
2021/06/04 04:44:04;;;;;;;;;8.25;7.75;;;;;27.66;46.23;101540.94;4996389;28;45411;-52
2021/06/04 04:46:30;;;;;;;;;7.75;6.00;;;;;27.66;45.76;101538.16;4996615;28;45539;-51
2021/06/04 04:48:57;;;;;;;;;7.50;7.50;;;;;27.66;46.01;101543.69;4995330;28;45414;-50
2021/06/04 04:51:24;;;;;;;;;6.50;5.75;;;;;27.66;46.18;101534.53;4996477;28;45897;-54
2021/06/04 04:53:51;;;;;;;;;7.00;7.00;;;;;27.64;45.80;101534.75;4995953;28;45464;-52
2021/06/04 04:56:18;;;;;;;;;6.75;5.00;;;;;27.62;46.08;101525.81;4996433;28;45396;-50
2021/06/04 04:58:44;;;;;;;;;6.00;6.00;;;;;27.63;46.40;101529.41;4994645;28;45526;-54
2021/06/04 05:01:11;;;;;;;;;7.25;7.25;;;;;27.65;46.51;101535.59;4995832;28;45951;-53
2021/06/04 05:03:37;;;;;;;;;7.00;6.00;;;;;27.64;46.19;101518.19;4996154;28;45268;-54
2021/06/04 05:06:04;;;;;;;;;6.50;6.25;;;;;27.63;46.50;101507.34;4996459;28;45306;-54
2021/06/04 05:08:29;;;;;;;;;6.75;6.75;;;;;27.64;46.22;101512.66;4997252;28;45242;-49
2021/06/04 05:10:56;;;;;;;;;6.50;6.50;;;;;27.63;46.34;101510.97;4999546;28;45520;-51
2021/06/04 05:13:22;;;;;;;;;7.25;7.25;;;;;27.64;46.25;101514.56;4999493;28;45924;-56
2021/06/04 05:15:47;;;;;;;;;6.00;6.00;;;;;27.61;46.13;101518.56;4999749;28;45390;-50
2021/06/04 05:18:14;;;;;;;;;7.00;7.00;;;;;27.61;46.42;101532.38;4999732;28;45464;-52
2021/06/04 05:20:45;;;;;;;;;5.75;5.75;;;;;27.60;46.03;101583.06;4999631;28;45495;-48
2021/06/04 05:23:12;;;;;;;;;8.00;8.00;;;;;27.60;46.45;101663.06;4999166;28;45470;-52
2021/06/04 05:25:41;;;;;;;;;7.75;6.50;;;;;27.58;46.37;101663.25;4999306;28;45477;-54
2021/06/04 05:28:08;;;;;;;;;6.25;5.25;;;;;27.56;46.36;101672.75;4999008;28;45262;-54
2021/06/04 05:30:38;;;;;;;;;8.50;7.00;;;;;27.53;45.97;101674.00;4999345;28;46245;-51
2021/06/04 05:33:05;;;;;;;;;6.75;6.75;;;;;27.51;46.40;101703.66;4999370;28;45408;-53
2021/06/04 05:35:31;;;;;;;;;7.25;6.75;;;;;27.51;46.67;101711.09;4999546;28;45377;-51
2021/06/04 05:37:58;;;;;;;;;8.25;7.25;;;;;27.49;46.42;101735.25;5014550;28;45567;-53
2021/06/04 05:40:28;;;;;;;;;9.00;5.50;;;;;27.47;46.52;101756.63;5014057;28;46134;-52
2021/06/04 05:42:54;;;;;;;;;8.00;6.25;;;;;27.47;46.48;101751.97;4999054;28;45356;-50
2021/06/04 05:45:22;;;;;;;;;10.00;8.25;;;;;27.41;46.27;101737.00;4999170;28;45491;-47
2021/06/04 05:47:48;;;;;;;;;8.25;6.50;;;;;27.45;46.69;101748.56;4997922;28;45406;-51
2021/06/04 05:50:20;;;;;;;;;7.00;6.00;;;;;27.43;46.34;101726.63;4998965;28;45260;-54
2021/06/04 05:52:46;;;;;;;;;7.25;6.00;;;;;27.41;46.59;101692.88;4999261;28;45518;-50
2021/06/04 05:55:14;;;;;;;;;6.50;6.00;;;;;27.43;46.46;101681.66;4997834;28;45449;-53
2021/06/04 05:57:39;;;;;;;;;6.50;6.00;;;;;27.42;46.56;101671.69;4998753;28;45476;-49
2021/06/04 06:00:12;;;;;;;;;5.50;5.00;;;;;27.41;46.70;101651.50;4998669;28;45970;-52
2021/06/04 06:02:38;;;;;;;;;5.75;5.75;;;;;27.41;46.61;101667.22;4998692;28;45249;-53
2021/06/04 06:05:04;;;;;;;;;7.00;7.00;;;;;27.38;46.68;101667.59;4999020;28;45249;-49
2021/06/04 06:07:29;;;;;;;;;7.25;6.25;;;;;27.39;46.77;101674.81;4998998;28;45288;-50
2021/06/04 06:09:55;;;;;;;;;5.75;5.75;;;;;27.39;46.25;101677.56;4998218;28;45343;-54
2021/06/04 06:12:20;;;;;;;;;8.25;6.25;;;;;27.38;46.56;101678.63;4998679;28;45412;-53
2021/06/04 06:14:46;;;;;;;;;7.00;5.00;;;;;27.37;46.92;101697.06;4998386;28;45490;-49
2021/06/04 06:17:12;;;;;;;;;6.25;6.00;;;;;27.37;46.67;101694.31;4998754;28;45313;-52
2021/06/04 06:19:38;;;;;;;;;4.75;4.25;;;;;27.36;46.46;101703.63;4998018;28;46021;-53
2021/06/04 06:22:03;;;;;;;;;7.00;7.00;;;;;27.36;46.69;101703.63;4998580;28;45275;-52
2021/06/04 06:24:29;;;;;;;;;7.00;7.00;;;;;27.36;46.58;101689.84;4998423;28;45388;-50
2021/06/04 06:26:57;;;;;;;;;6.75;5.25;;;;;27.32;46.63;101663.69;4998824;28;45215;-52
2021/06/04 06:29:23;;;;;;;;;6.25;6.25;;;;;27.35;46.36;101663.31;4998045;28;45511;-51
2021/06/04 06:31:48;;;;;;;;;7.25;4.25;;;;;27.35;46.74;101644.00;4998306;28;45342;-52
2021/06/04 06:34:15;;;;;;;;;5.25;5.25;;;;;27.34;46.58;101644.19;4998477;28;45378;-52
2021/06/04 06:36:43;;;;;;;;;6.75;5.75;;;;;27.34;47.15;101639.53;4998444;28;45520;-49
2021/06/04 06:39:27;;;;;;;;;7.75;7.75;;;;;27.33;47.10;101632.31;4997957;28;45339;-54
2021/06/04 06:41:54;;;;;;;;;6.00;6.00;;;;;27.33;46.96;101625.97;4998194;28;45804;-51
2021/06/04 06:44:20;;;;;;;;;8.00;7.00;;;;;27.33;46.89;101623.19;4998443;28;45294;-50
2021/06/04 06:46:47;;;;;;;;;4.25;4.25;;;;;27.33;46.62;101646.09;4998372;28;45223;-50
2021/06/04 06:49:13;;;;;;;;;5.75;5.75;;;;;27.33;46.89;101665.41;4998116;28;45309;-51
2021/06/04 06:51:39;;;;;;;;;8.00;6.25;;;;;27.34;47.04;101669.88;4998119;28;45231;-49
2021/06/04 06:54:07;;;;;;;;;6.25;6.00;;;;;27.32;46.55;101660.94;4998091;28;45360;-50
2021/06/04 06:56:34;;;;;;;;;6.50;6.50;;;;;27.33;47.01;101648.00;4998053;28;45361;-52
2021/06/04 06:59:00;;;;;;;;;7.00;7.00;;;;;27.33;46.96;101659.88;4983925;28;46873;-52
2021/06/04 07:01:27;;;;;;;;;7.00;7.00;;;;;27.33;46.96;101679.19;4997622;28;45523;-49
2021/06/04 07:03:53;;;;;;;;;7.00;7.00;;;;;27.33;46.59;101681.94;4997796;28;45255;-51
2021/06/04 07:06:25;;;;;;;;;12.00;8.25;;;;;27.33;47.20;101684.69;4998045;28;45291;-48
2021/06/04 07:08:51;;;;;;;;;9.00;8.75;;;;;27.34;47.03;101680.91;4997007;28;45574;-48
2021/06/04 07:11:18;;;;;;;;;7.50;7.50;;;;;27.34;47.19;101680.91;4997648;28;45318;-50
2021/06/04 07:13:45;;;;;;;;;9.00;8.75;;;;;27.35;46.87;101684.50;4997894;28;45309;-53
2021/06/04 07:16:11;;;;;;;;;11.25;10.25;;;;;27.36;46.94;101681.56;5000209;28;45569;-54
2021/06/04 07:18:38;;;;;;;;;4.50;4.00;;;;;27.36;47.32;101680.69;4995437;28;45527;-53
2021/06/04 07:21:07;;;;;;;;;4.50;4.50;;;;;27.34;46.83;101678.13;4997487;28;45542;-55
2021/06/04 07:23:32;;;;;;;;;3.75;3.75;;;;;27.35;47.30;101673.47;4997358;28;45536;-54
2021/06/04 07:25:58;;;;;;;;;3.75;3.25;;;;;27.32;47.22;101679.38;4997202;28;45171;-56
2021/06/04 07:28:27;;;;;;;;;3.50;3.50;;;;;27.29;47.07;101667.69;4997487;28;45883;-52
2021/06/04 07:30:56;;;;;;;;;4.00;3.00;;;;;27.28;46.98;101673.38;4996828;28;45422;-53
2021/06/04 07:33:29;;;;;;;;;4.00;2.75;;;;;27.24;47.09;101675.66;5000663;28;45432;-52
2021/06/04 07:35:58;;;;;;;;;2.25;2.25;;;;;27.21;47.12;101675.19;4978297;28;45233;-53
2021/06/04 07:38:27;;;;;;;;;2.25;2.25;;;;;27.19;47.07;101677.25;4993071;28;45919;-46
2021/06/04 07:40:54;;;;;;;;;2.25;2.25;;;;;27.18;47.79;101675.56;4997446;28;45539;-49
2021/06/04 07:43:25;;;;;;;;;2.00;2.00;;;;;27.19;47.53;101672.59;4995988;28;45381;-46
2021/06/04 07:45:51;;;;;;;;;2.25;2.25;;;;;27.21;47.15;101673.25;4995906;28;45476;-50
2021/06/04 07:48:20;;;;;;;;;2.25;2.25;;;;;27.23;47.31;101673.94;4997255;28;45312;-49
2021/06/04 07:50:48;;;;;;;;;2.50;2.00;;;;;27.25;47.38;101676.53;4997269;28;45613;-47
2021/06/04 07:53:16;;;;;;;;;2.50;2.50;;;;;27.25;47.53;101679.28;4997514;28;45246;-47
2021/06/04 07:55:42;;;;;;;;;2.50;2.00;;;;;27.25;47.41;101682.03;4984398;28;45472;-48
2021/06/04 07:58:08;;;;;;;;;2.25;2.00;;;;;27.27;47.17;101677.16;4996545;28;45894;-47
2021/06/04 08:00:35;;;;;;;;;2.00;2.00;;;;;27.28;47.56;101674.25;4996701;28;45480;-49
2021/06/04 08:03:03;;;;;;;;;3.25;3.00;;;;;27.27;47.10;101667.00;4997125;28;45466;-48
2021/06/04 08:05:30;;;;;;;;;3.00;3.00;;;;;27.29;47.61;101664.94;4997007;28;45588;-53
2021/06/04 08:07:56;;;;;;;;;4.50;3.00;;;;;27.31;47.14;101664.72;4996353;28;45992;-50
2021/06/04 08:10:22;;;;;;;;;4.00;2.50;;;;;27.33;47.27;101656.28;4996800;28;45305;-52
2021/06/04 08:12:48;;;;;;;;;2.50;2.25;;;;;27.35;47.68;101656.94;4995712;28;45476;-49
2021/06/04 08:15:18;;;;;;;;;4.25;3.00;;;;;27.34;46.93;101645.06;4996666;28;45416;-50
2021/06/04 08:17:45;;;;;;;;;3.00;3.00;;;;;27.36;47.46;101642.09;4996472;28;45222;-51
2021/06/04 08:20:22;;;;;;;;;1.25;1.25;;;;;27.38;47.24;101654.66;4996682;28;45619;-49
2021/06/04 08:22:48;;;;;;;;;3.50;2.50;;;;;27.40;46.89;101662.75;4996831;28;46143;-51
2021/06/04 08:25:15;;;;;;;;;3.75;3.00;;;;;27.40;47.19;101657.22;4996795;28;45519;-49
2021/06/04 08:27:40;;;;;;;;;4.50;3.00;;;;;27.40;47.41;101655.31;4996589;28;45953;-50
2021/06/04 08:30:09;;;;;;;;;3.00;3.00;;;;;27.42;47.22;101647.69;4996741;28;45372;-52
2021/06/04 08:32:36;;;;;;;;;1.25;1.00;;;;;27.44;46.60;101647.53;4992654;28;45450;-50
2021/06/04 08:35:04;;;;;;;;;2.00;2.00;;;;;27.44;46.53;101651.13;4996300;28;45476;-48
2021/06/04 08:37:30;;;;;;;;;2.00;2.00;;;;;27.43;46.75;101654.94;4995388;28;46126;-52
2021/06/04 08:39:56;;;;;;;;;2.00;2.00;;;;;27.47;46.47;101660.09;4991793;28;46027;-50
2021/06/04 08:42:36;;;;;;;;;2.00;2.00;;;;;27.48;46.67;101662.66;4995306;28;45515;-46
2021/06/04 08:45:20;;;;;;;;;4.00;1.75;;;;;27.51;47.03;101666.97;4978048;28;45419;-50
2021/06/04 08:47:57;;;;;;;;;2.00;2.00;;;;;27.51;46.82;101664.22;4995393;28;46114;-46
2021/06/04 08:50:50;;;;;;;;;1.50;1.50;;;;;27.55;46.98;101662.75;5011171;28;45380;-50
2021/06/04 08:53:25;;;;;;;;;2.50;1.50;;;;;27.56;46.68;101657.06;4987954;28;45396;-53
2021/06/04 08:56:00;;;;;;;;;1.25;1.25;;;;;27.58;46.63;101654.09;4986468;28;45825;-48
2021/06/04 08:58:35;;;;;;;;;2.00;2.00;;;;;27.59;46.68;101655.81;4992388;28;46263;-49
2021/06/04 09:01:31;;;;;;;;;4.50;3.00;;;;;27.60;46.30;101657.53;4983850;28;45707;-50
2021/06/04 09:04:20;;;;;;;;;3.75;3.75;;;;;27.62;46.83;101662.84;4990509;28;45449;-51
2021/06/04 09:06:49;;;;;;;;;2.50;2.00;;;;;27.65;47.27;101659.72;4994744;28;45372;-51
2021/06/04 09:09:27;;;;;;;;;3.00;2.00;;;;;27.68;47.25;101654.69;4992993;28;46356;-48
2021/06/04 09:11:57;;;;;;;;;2.00;2.00;;;;;27.70;47.10;101655.34;4994360;28;45418;-48
2021/06/04 09:14:24;;;;;;;;;2.00;2.00;;;;;27.73;46.93;101657.72;4995704;28;45308;-46
2021/06/04 09:17:31;;;;;;;;;1.00;1.00;;;;;27.75;47.07;101652.88;4995238;28;45470;-49
2021/06/04 09:20:06;;;;;;;;;1.75;1.75;;;;;27.78;47.06;101657.13;4973935;28;47979;-47
2021/06/04 09:22:39;;;;;;;;;1.00;1.00;;;;;27.83;47.36;101662.06;4989341;28;45437;-47
2021/06/04 09:25:11;;;;;;;;;2.00;2.00;;;;;27.86;47.17;101672.72;4991699;28;45364;-49
2021/06/04 09:27:42;;;;;;;;;2.50;1.00;;;;;27.89;46.96;101666.84;4994143;28;45647;-50
2021/06/04 09:30:25;;;;;;;;;2.50;1.50;;;;;27.91;46.92;101673.03;4994365;28;45968;-51
2021/06/04 09:33:18;;;;;;;;;2.00;2.00;;;;;27.94;46.72;101666.25;4975749;28;45570;-52
2021/06/04 09:36:07;;;;;;;;;2.00;1.00;;;;;27.95;46.56;101668.84;4987714;28;45275;-50
2021/06/04 09:39:07;;;;;;;;;3.00;1.25;;;;;27.97;46.63;101666.72;4982851;28;45504;-50
2021/06/04 09:41:37;;;;;;;;;1.00;1.00;;;;;27.98;46.44;101664.81;4934250;28;46155;-50
2021/06/04 09:44:11;;;;;;;;;1.25;1.00;;;;;27.97;46.47;101655.66;4934562;28;45839;-49
2021/06/04 09:46:42;;;;;;;;;2.25;2.00;;;;;28.00;46.51;101671.00;4935744;28;45447;-47
2021/06/04 09:49:07;;;;;;;;;2.25;2.00;;;;;28.00;45.92;101676.53;4953924;28;45265;-47
2021/06/04 09:51:38;;;;;;;;;1.25;1.25;;;;;28.01;45.88;101687.38;4953454;28;45280;-54
2021/06/04 09:54:28;;;;;;;;;1.75;1.75;;;;;28.01;46.11;101684.59;4954358;28;45380;-47
2021/06/04 09:57:13;;;;;;;;;1.50;1.00;;;;;28.02;46.27;101689.06;4956046;28;47323;-48
2021/06/04 09:59:39;;;;;;;;;1.00;1.00;;;;;28.03;46.07;101685.28;4946621;28;45356;-49
2021/06/04 10:02:35;;;;;;;;;2.00;2.00;;;;;28.05;45.81;101690.59;4956516;28;45417;-52
2021/06/04 10:05:10;;;;;;;;;1.00;1.00;;;;;28.06;45.89;101692.28;4957144;28;45393;-49
2021/06/04 10:07:36;;;;;;;;;1.00;1.00;;;;;28.09;45.82;101693.84;4956695;28;45511;-49
2021/06/04 10:10:34;;;;;;;;;1.50;1.00;;;;;28.10;45.61;101690.06;4940432;28;45539;-49
2021/06/04 10:13:03;;;;;;;;;1.00;1.00;;;;;28.11;45.77;101686.25;4953807;28;45982;-49
2021/06/04 10:15:40;;;;;;;;;3.00;2.00;;;;;28.13;45.50;101689.66;4956615;28;45783;-50
2021/06/04 10:18:33;;;;;;;;;1.00;1.00;;;;;28.15;45.92;101684.78;4968640;28;45331;-50
2021/06/04 10:21:30;;;;;;;;;1.25;1.00;;;;;28.18;45.62;101689.94;4997336;28;45635;-53
2021/06/04 10:23:59;;;;;;;;;2.50;2.50;;;;;28.18;45.59;101689.94;4984454;28;45610;-51
2021/06/04 10:26:36;;;;;;;;;1.00;1.00;;;;;28.19;45.72;101692.50;4997835;28;45836;-48
2021/06/04 10:29:08;;;;;;;;;1.00;1.00;;;;;28.19;45.43;101702.69;4994924;28;45245;-46
2021/06/04 10:31:51;;;;;;;;;1.00;1.00;;;;;28.15;45.71;101684.78;4978084;28;45958;-49
2021/06/04 10:34:47;;;;;;;;;1.00;1.00;;;;;28.18;45.52;101701.84;4977823;28;45393;-52
2021/06/04 10:37:22;;;;;;;;;1.75;1.75;;;;;28.19;45.77;101702.69;4977598;28;45535;-49
2021/06/04 10:39:54;;;;;;;;;2.25;1.50;;;;;28.21;45.65;101695.06;4986054;28;45463;-50
2021/06/04 10:42:27;;;;;;;;;1.00;1.00;;;;;28.22;45.44;101699.56;4997935;28;45535;-47
2021/06/04 10:45:25;;;;;;;;;2.75;1.75;;;;;28.24;45.42;101700.22;4997457;28;45976;-50
2021/06/04 10:48:02;;;;;;;;;2.50;2.50;;;;;28.24;45.42;101702.97;4997501;28;46151;-47
2021/06/04 10:50:54;;;;;;;;;1.00;1.00;;;;;28.25;45.21;101709.34;4997691;28;45544;-49
2021/06/04 10:53:47;;;;;;;;;2.00;2.00;;;;;28.24;45.22;101707.63;4995144;28;45315;-51
2021/06/04 10:56:19;;;;;;;;;1.50;1.50;;;;;28.23;45.66;101704.03;4997182;28;45377;-51
2021/06/04 10:59:15;;;;;;;;;1.00;1.00;;;;;28.24;45.29;101704.88;4996714;28;45419;-50
2021/06/04 11:01:49;;;;;;;;;2.00;2.00;;;;;28.25;45.66;101696.41;4997292;28;45426;-51
2021/06/04 11:04:50;;;;;;;;;1.25;1.25;;;;;28.26;45.43;101703.59;4997346;28;45246;-51
2021/06/04 11:07:27;;;;;;;;;1.75;1.75;;;;;28.27;45.11;101708.09;4995692;28;45385;-52
2021/06/04 11:09:52;;;;;;;;;2.75;1.25;;;;;28.28;45.02;101701.50;4997088;28;45353;-48
2021/06/04 11:12:55;;;;;;;;;2.00;2.00;;;;;28.29;45.43;101700.47;4997206;28;45345;-54
2021/06/04 11:15:29;;;;;;;;;1.75;1.75;;;;;28.31;45.06;101703.06;4995694;28;45447;-50
2021/06/04 11:18:02;;;;;;;;;1.00;1.00;;;;;28.32;45.31;101686.28;4995475;28;45503;-51
2021/06/04 11:20:42;;;;;;;;;2.00;2.00;;;;;28.32;45.06;101683.50;4996427;28;45713;-51
2021/06/04 11:23:29;;;;;;;;;2.00;2.00;;;;;28.34;45.31;101677.78;5012492;28;45254;-51
2021/06/04 11:25:58;;;;;;;;;1.75;1.75;;;;;28.37;45.25;101676.56;4997224;28;45497;-51
2021/06/04 11:28:52;;;;;;;;;4.00;3.00;;;;;28.38;45.51;101678.28;4996718;28;45562;-51
2021/06/04 11:31:36;;;;;;;;;2.00;2.00;;;;;28.39;45.23;101679.97;4977509;28;45458;-52
2021/06/04 11:34:06;;;;;;;;;1.50;1.50;;;;;28.40;45.16;101676.19;4986214;28;45428;-52
2021/06/04 11:36:41;;;;;;;;;2.00;2.00;;;;;28.40;45.42;101678.94;4996363;28;45570;-51
2021/06/04 11:39:11;;;;;;;;;2.75;2.75;;;;;28.40;45.49;101674.25;4991059;28;46089;-54
2021/06/04 11:41:42;;;;;;;;;3.50;3.50;;;;;28.44;45.48;101680.22;4996675;28;45280;-48
2021/06/04 11:44:46;;;;;;;;;4.00;3.00;;;;;28.44;44.99;101678.34;4996739;28;45494;-49
2021/06/04 11:47:12;;;;;;;;;2.50;2.50;;;;;28.43;45.29;101679.38;4993858;28;45319;-48